sensor_id;sensor_type;location;lat;lon;timestamp;pressure;altitude;pressure_sealevel;temperature;humidity
45369;BME280;51342;55.250;37.668;2022-12-18T00:00:52;98890.09;;;-4.69;82.59
45369;BME280;51342;55.250;37.668;2022-12-18T00:03:25;98890.09;;;-4.69;82.46
45369;BME280;51342;55.250;37.668;2022-12-18T00:05:56;98897.50;;;-4.71;82.77
45369;BME280;51342;55.250;37.668;2022-12-18T00:08:28;98892.63;;;-4.69;82.60
45369;BME280;51342;55.250;37.668;2022-12-18T00:11:12;98895.72;;;-4.72;82.36
45369;BME280;51342;55.250;37.668;2022-12-18T00:13:44;98897.81;;;-4.68;82.74
45369;BME280;51342;55.250;37.668;2022-12-18T00:16:22;98899.47;;;-4.68;82.67
45369;BME280;51342;55.250;37.668;2022-12-18T00:18:54;98901.88;;;-4.86;82.77
45369;BME280;51342;55.250;37.668;2022-12-18T00:21:30;98905.19;;;-4.78;82.63
45369;BME280;51342;55.250;37.668;2022-12-18T00:24:02;98902.50;;;-4.80;82.64
45369;BME280;51342;55.250;37.668;2022-12-18T00:26:35;98905.19;;;-4.78;82.47
45369;BME280;51342;55.250;37.668;2022-12-18T00:29:11;98906.25;;;-4.76;82.61
45369;BME280;51342;55.250;37.668;2022-12-18T00:31:42;98892.00;;;-4.75;82.49
45369;BME280;51342;55.250;37.668;2022-12-18T00:34:14;98884.59;;;-4.74;82.57
45369;BME280;51342;55.250;37.668;2022-12-18T00:36:47;98880.44;;;-4.73;82.34
45369;BME280;51342;55.250;37.668;2022-12-18T00:39:19;98872.72;;;-4.75;82.47
45369;BME280;51342;55.250;37.668;2022-12-18T00:41:50;98871.06;;;-4.74;82.57
45369;BME280;51342;55.250;37.668;2022-12-18T00:44:40;98857.56;;;-4.75;82.36
45369;BME280;51342;55.250;37.668;2022-12-18T00:47:11;98849.09;;;-4.75;82.25
45369;BME280;51342;55.250;37.668;2022-12-18T00:49:43;98834.53;;;-4.78;82.52
45369;BME280;51342;55.250;37.668;2022-12-18T00:52:14;98814.94;;;-4.81;82.40
45369;BME280;51342;55.250;37.668;2022-12-18T00:54:46;98820.56;;;-4.83;82.28
45369;BME280;51342;55.250;37.668;2022-12-18T00:57:17;98816.72;;;-4.80;82.29
45369;BME280;51342;55.250;37.668;2022-12-18T00:59:49;98819.41;;;-4.78;82.29
45369;BME280;51342;55.250;37.668;2022-12-18T01:02:20;98814.34;;;-4.78;82.21
45369;BME280;51342;55.250;37.668;2022-12-18T01:04:51;98827.84;;;-4.77;82.25
45369;BME280;51342;55.250;37.668;2022-12-18T01:07:24;98814.34;;;-4.78;82.19
45369;BME280;51342;55.250;37.668;2022-12-18T01:09:56;98818.66;;;-4.77;82.21
45369;BME280;51342;55.250;37.668;2022-12-18T01:12:27;98810.94;;;-4.78;82.07
45369;BME280;51342;55.250;37.668;2022-12-18T01:14:58;98815.09;;;-4.79;81.97
45369;BME280;51342;55.250;37.668;2022-12-18T01:17:30;98807.66;;;-4.77;82.06
45369;BME280;51342;55.250;37.668;2022-12-18T01:20:02;98810.78;;;-4.80;82.16
45369;BME280;51342;55.250;37.668;2022-12-18T01:22:34;98805.75;;;-4.80;82.07
45369;BME280;51342;55.250;37.668;2022-12-18T01:25:06;98815.69;;;-4.82;81.94
45369;BME280;51342;55.250;37.668;2022-12-18T01:27:38;98817.00;;;-4.85;81.88
45369;BME280;51342;55.250;37.668;2022-12-18T01:30:10;98817.47;;;-4.81;82.00
45369;BME280;51342;55.250;37.668;2022-12-18T01:32:41;98812.41;;;-4.81;81.87
45369;BME280;51342;55.250;37.668;2022-12-18T01:35:13;98811.94;;;-4.85;81.78
45369;BME280;51342;55.250;37.668;2022-12-18T01:37:44;98809.28;;;-4.87;81.83
45369;BME280;51342;55.250;37.668;2022-12-18T01:40:16;98802.47;;;-4.88;81.85
45369;BME280;51342;55.250;37.668;2022-12-18T01:42:54;98792.94;;;-4.90;81.61
45369;BME280;51342;55.250;37.668;2022-12-18T01:45:28;98802.47;;;-4.88;81.75
45369;BME280;51342;55.250;37.668;2022-12-18T01:48:02;98793.97;;;-4.88;81.61
45369;BME280;51342;55.250;37.668;2022-12-18T01:50:38;98794.16;;;-4.87;81.64
45369;BME280;51342;55.250;37.668;2022-12-18T01:59:33;98802.72;;;-4.93;81.46
45369;BME280;51342;55.250;37.668;2022-12-18T02:02:05;98790.38;;;-4.99;81.37
45369;BME280;51342;55.250;37.668;2022-12-18T02:04:37;98801.81;;;-4.94;81.68
45369;BME280;51342;55.250;37.668;2022-12-18T02:07:20;98798.25;;;-4.96;81.63
45369;BME280;51342;55.250;37.668;2022-12-18T02:10:44;98797.50;;;-4.95;81.48
45369;BME280;51342;55.250;37.668;2022-12-18T02:15:40;98811.59;;;-4.97;81.39
45369;BME280;51342;55.250;37.668;2022-12-18T02:18:20;98822.16;;;-4.92;81.43
45369;BME280;51342;55.250;37.668;2022-12-18T02:21:00;98802.53;;;-4.95;81.28
45369;BME280;51342;55.250;37.668;2022-12-18T02:24:15;98794.97;;;-4.95;81.35
45369;BME280;51342;55.250;37.668;2022-12-18T02:26:43;98791.34;;;-5.06;81.44
45369;BME280;51342;55.250;37.668;2022-12-18T02:29:21;98799.09;;;-5.04;81.33
45369;BME280;51342;55.250;37.668;2022-12-18T02:31:57;98812.75;;;-5.02;81.45
45369;BME280;51342;55.250;37.668;2022-12-18T05:52:19;99010.91;;;-5.67;80.18
45369;BME280;51342;55.250;37.668;2022-12-18T05:54:51;99005.59;;;-5.62;80.21
45369;BME280;51342;55.250;37.668;2022-12-18T05:57:22;99019.06;;;-5.54;80.17
45369;BME280;51342;55.250;37.668;2022-12-18T05:59:53;99029.28;;;-5.52;80.16
45369;BME280;51342;55.250;37.668;2022-12-18T06:02:25;99040.09;;;-5.53;80.02
45369;BME280;51342;55.250;37.668;2022-12-18T06:04:56;99047.09;;;-5.51;80.21
45369;BME280;51342;55.250;37.668;2022-12-18T06:07:28;99074.56;;;-5.45;79.97
45369;BME280;51342;55.250;37.668;2022-12-18T06:09:59;99078.34;;;-5.42;80.01
45369;BME280;51342;55.250;37.668;2022-12-18T06:12:31;99077.59;;;-5.41;79.96
45369;BME280;51342;55.250;37.668;2022-12-18T06:15:05;99081.25;;;-5.46;79.49
45369;BME280;51342;55.250;37.668;2022-12-18T06:17:37;99078.72;;;-5.46;79.60
45369;BME280;51342;55.250;37.668;2022-12-18T06:20:08;99085.00;;;-5.42;79.67
45369;BME280;51342;55.250;37.668;2022-12-18T06:22:40;99086.06;;;-5.40;79.67
45369;BME280;51342;55.250;37.668;2022-12-18T06:25:12;99097.75;;;-5.41;79.55
45369;BME280;51342;55.250;37.668;2022-12-18T06:27:43;99095.63;;;-5.45;79.43
45369;BME280;51342;55.250;37.668;2022-12-18T06:30:15;99106.41;;;-5.39;79.40
45369;BME280;51342;55.250;37.668;2022-12-18T06:32:48;99119.00;;;-5.39;78.96
45369;BME280;51342;55.250;37.668;2022-12-18T06:35:19;99118.28;;;-5.38;79.36
45369;BME280;51342;55.250;37.668;2022-12-18T06:37:51;99120.38;;;-5.34;79.21
45369;BME280;51342;55.250;37.668;2022-12-18T06:40:23;99123.97;;;-5.31;79.17
45369;BME280;51342;55.250;37.668;2022-12-18T06:42:55;99126.91;;;-5.36;79.07
45369;BME280;51342;55.250;37.668;2022-12-18T06:45:27;99141.78;;;-5.30;79.01
45369;BME280;51342;55.250;37.668;2022-12-18T06:47:59;99143.75;;;-5.27;78.91
45369;BME280;51342;55.250;37.668;2022-12-18T06:50:31;99154.41;;;-5.30;78.97
45369;BME280;51342;55.250;37.668;2022-12-18T06:53:02;99155.13;;;-5.31;78.81
45369;BME280;51342;55.250;37.668;2022-12-18T06:55:34;99149.34;;;-5.30;78.72
45369;BME280;51342;55.250;37.668;2022-12-18T06:58:07;99156.03;;;-5.30;78.68
45369;BME280;51342;55.250;37.668;2022-12-18T07:00:39;99163.19;;;-5.26;78.48
45369;BME280;51342;55.250;37.668;2022-12-18T07:03:10;99176.31;;;-5.22;78.55
45369;BME280;51342;55.250;37.668;2022-12-18T07:05:42;99179.53;;;-5.23;78.31
45369;BME280;51342;55.250;37.668;2022-12-18T07:08:13;99186.94;;;-5.24;78.11
45369;BME280;51342;55.250;37.668;2022-12-18T07:10:46;99188.41;;;-5.26;78.07
45369;BME280;51342;55.250;37.668;2022-12-18T07:13:18;99207.28;;;-5.23;78.11
45369;BME280;51342;55.250;37.668;2022-12-18T07:15:50;99200.59;;;-5.22;78.04
45369;BME280;51342;55.250;37.668;2022-12-18T07:18:22;99210.66;;;-5.15;78.00
45369;BME280;51342;55.250;37.668;2022-12-18T07:20:55;99205.25;;;-5.18;77.68
45369;BME280;51342;55.250;37.668;2022-12-18T07:23:27;99194.88;;;-5.21;77.68
45369;BME280;51342;55.250;37.668;2022-12-18T07:26:04;99195.25;;;-5.25;77.54
45369;BME280;51342;55.250;37.668;2022-12-18T07:28:36;99206.06;;;-5.26;77.59
45369;BME280;51342;55.250;37.668;2022-12-18T07:31:12;99213.28;;;-5.29;77.44
45369;BME280;51342;55.250;37.668;2022-12-18T07:33:46;99213.28;;;-5.29;77.47
45369;BME280;51342;55.250;37.668;2022-12-18T07:36:19;99219.41;;;-5.27;77.31
45369;BME280;51342;55.250;37.668;2022-12-18T07:38:53;99221.19;;;-5.26;77.24
45369;BME280;51342;55.250;37.668;2022-12-18T07:41:25;99222.47;;;-5.30;77.04
45369;BME280;51342;55.250;37.668;2022-12-18T07:43:58;99227.50;;;-5.30;76.99
45369;BME280;51342;55.250;37.668;2022-12-18T07:46:30;99232.91;;;-5.27;77.04
45369;BME280;51342;55.250;37.668;2022-12-18T07:49:03;99239.91;;;-5.24;76.95
45369;BME280;51342;55.250;37.668;2022-12-18T07:51:35;99250.72;;;-5.25;76.84
45369;BME280;51342;55.250;37.668;2022-12-18T07:54:07;99250.88;;;-5.24;76.72
45369;BME280;51342;55.250;37.668;2022-12-18T07:56:40;99260.81;;;-5.25;76.72
45369;BME280;51342;55.250;37.668;2022-12-18T07:59:11;99259.34;;;-5.23;76.64
45369;BME280;51342;55.250;37.668;2022-12-18T08:01:43;99260.22;;;-5.23;76.49
45369;BME280;51342;55.250;37.668;2022-12-18T08:04:15;99257.47;;;-5.17;76.38
45369;BME280;51342;55.250;37.668;2022-12-18T08:06:47;99273.28;;;-5.11;76.47
45369;BME280;51342;55.250;37.668;2022-12-18T08:09:18;99253.13;;;-5.11;76.35
45369;BME280;51342;55.250;37.668;2022-12-18T08:11:52;99262.31;;;-5.12;76.38
45369;BME280;51342;55.250;37.668;2022-12-18T08:14:24;99270.59;;;-5.13;76.10
45369;BME280;51342;55.250;37.668;2022-12-18T08:16:57;99265.25;;;-5.16;75.94
45369;BME280;51342;55.250;37.668;2022-12-18T08:19:29;99261.47;;;-5.19;75.96
45369;BME280;51342;55.250;37.668;2022-12-18T08:22:02;99268.31;;;-5.18;75.98
45369;BME280;51342;55.250;37.668;2022-12-18T08:24:36;99277.66;;;-5.17;76.01
45369;BME280;51342;55.250;37.668;2022-12-18T08:27:08;99286.13;;;-5.17;75.91
45369;BME280;51342;55.250;37.668;2022-12-18T08:29:40;99291.69;;;-5.12;75.78
45369;BME280;51342;55.250;37.668;2022-12-18T08:32:12;99297.47;;;-5.13;75.68
45369;BME280;51342;55.250;37.668;2022-12-18T08:34:45;99306.66;;;-5.14;75.66
45369;BME280;51342;55.250;37.668;2022-12-18T08:37:18;99307.19;;;-5.16;75.39
45369;BME280;51342;55.250;37.668;2022-12-18T08:39:49;99311.00;;;-5.20;75.34
45369;BME280;51342;55.250;37.668;2022-12-18T08:42:23;99318.22;;;-5.16;75.40
45369;BME280;51342;55.250;37.668;2022-12-18T08:45:15;99319.59;;;-5.11;75.40
45369;BME280;51342;55.250;37.668;2022-12-18T08:47:48;99322.09;;;-5.11;75.35
45369;BME280;51342;55.250;37.668;2022-12-18T08:50:20;99333.44;;;-5.07;75.36
45369;BME280;51342;55.250;37.668;2022-12-18T08:52:52;99337.72;;;-4.99;75.27
45369;BME280;51342;55.250;37.668;2022-12-18T08:55:25;99334.84;;;-5.02;75.24
45369;BME280;51342;55.250;37.668;2022-12-18T08:57:58;99328.53;;;-4.98;75.03
45369;BME280;51342;55.250;37.668;2022-12-18T09:00:32;99348.16;;;-4.96;75.04
45369;BME280;51342;55.250;37.668;2022-12-18T09:03:04;99337.88;;;-4.97;74.74
45369;BME280;51342;55.250;37.668;2022-12-18T09:05:38;99338.63;;;-4.98;74.52
45369;BME280;51342;55.250;37.668;2022-12-18T09:08:09;99334.34;;;-5.07;74.56
45369;BME280;51342;55.250;37.668;2022-12-18T09:10:50;99331.97;;;-5.05;74.67
45369;BME280;51342;55.250;37.668;2022-12-18T09:13:22;99357.19;;;-4.98;74.75
45369;BME280;51342;55.250;37.668;2022-12-18T09:15:57;99356.97;;;-4.99;74.62
45369;BME280;51342;55.250;37.668;2022-12-18T09:18:32;99360.38;;;-4.92;74.65
45369;BME280;51342;55.250;37.668;2022-12-18T09:21:19;99371.38;;;-4.91;74.30
45369;BME280;51342;55.250;37.668;2022-12-18T09:23:52;99365.59;;;-4.90;74.61
45369;BME280;51342;55.250;37.668;2022-12-18T09:26:29;99372.25;;;-4.91;74.60
45369;BME280;51342;55.250;37.668;2022-12-18T09:29:06;99375.13;;;-4.88;74.59
45369;BME280;51342;55.250;37.668;2022-12-18T09:31:42;99378.19;;;-4.90;74.53
45369;BME280;51342;55.250;37.668;2022-12-18T09:34:16;99378.94;;;-4.91;74.46
45369;BME280;51342;55.250;37.668;2022-12-18T09:36:48;99382.00;;;-4.94;74.53
45369;BME280;51342;55.250;37.668;2022-12-18T09:39:23;99399.84;;;-4.92;74.47
45369;BME280;51342;55.250;37.668;2022-12-18T09:41:58;99405.78;;;-4.92;74.35
45369;BME280;51342;55.250;37.668;2022-12-18T09:44:36;99405.06;;;-4.91;74.50
45369;BME280;51342;55.250;37.668;2022-12-18T09:47:30;99411.38;;;-4.94;74.40
45369;BME280;51342;55.250;37.668;2022-12-18T09:52:56;99400.59;;;-4.93;74.68
45369;BME280;51342;55.250;37.668;2022-12-18T09:55:41;99407.41;;;-4.92;74.23
45369;BME280;51342;55.250;37.668;2022-12-18T10:01:06;99410.69;;;-4.93;74.69
45369;BME280;51342;55.250;37.668;2022-12-18T10:03:43;99416.25;;;-4.96;74.38
45369;BME280;51342;55.250;37.668;2022-12-18T10:09:16;99422.56;;;-4.92;74.47
45369;BME280;51342;55.250;37.668;2022-12-18T10:15:07;99442.91;;;-4.91;74.46
45369;BME280;51342;55.250;37.668;2022-12-18T10:20:45;99443.94;;;-4.82;74.59
45369;BME280;51342;55.250;37.668;2022-12-18T10:26:05;99455.16;;;-4.87;74.53
45369;BME280;51342;55.250;37.668;2022-12-18T10:28:42;99461.28;;;-4.92;74.66
45369;BME280;51342;55.250;37.668;2022-12-18T10:31:18;99467.56;;;-4.88;74.66
45369;BME280;51342;55.250;37.668;2022-12-18T10:33:53;99482.53;;;-4.90;74.74
45369;BME280;51342;55.250;37.668;2022-12-18T10:36:28;99480.91;;;-4.89;74.69
45369;BME280;51342;55.250;37.668;2022-12-18T10:39:21;99482.91;;;-4.94;74.80
45369;BME280;51342;55.250;37.668;2022-12-18T10:42:17;99492.78;;;-4.88;74.77
45369;BME280;51342;55.250;37.668;2022-12-18T10:45:02;99494.06;;;-4.85;74.85
45369;BME280;51342;55.250;37.668;2022-12-18T10:47:36;99487.91;;;-4.80;74.96
45369;BME280;51342;55.250;37.668;2022-12-18T10:50:34;99490.06;;;-4.83;74.79
45369;BME280;51342;55.250;37.668;2022-12-18T10:53:20;99489.00;;;-4.85;74.97
45369;BME280;51342;55.250;37.668;2022-12-18T10:55:55;99498.88;;;-4.79;74.94
45369;BME280;51342;55.250;37.668;2022-12-18T10:58:35;99484.47;;;-4.80;75.05
45369;BME280;51342;55.250;37.668;2022-12-18T11:01:13;99495.09;;;-4.75;75.11
45369;BME280;51342;55.250;37.668;2022-12-18T11:06:25;99497.22;;;-4.71;75.23
45369;BME280;51342;55.250;37.668;2022-12-18T11:11:37;99500.44;;;-4.65;75.31
45369;BME280;51342;55.250;37.668;2022-12-18T11:14:20;99498.63;;;-4.66;75.06
45369;BME280;51342;55.250;37.668;2022-12-18T11:16:54;99498.09;;;-4.64;75.45
45369;BME280;51342;55.250;37.668;2022-12-18T11:19:37;99505.09;;;-4.61;75.46
45369;BME280;51342;55.250;37.668;2022-12-18T11:22:27;99502.06;;;-4.66;75.42
45369;BME280;51342;55.250;37.668;2022-12-18T11:27:39;99507.63;;;-4.61;75.64
45369;BME280;51342;55.250;37.668;2022-12-18T11:30:24;99515.38;;;-4.60;75.89
45369;BME280;51342;55.250;37.668;2022-12-18T11:33:05;99519.34;;;-4.62;75.78
45369;BME280;51342;55.250;37.668;2022-12-18T11:35:57;99521.16;;;-4.61;76.03
45369;BME280;51342;55.250;37.668;2022-12-18T11:38:36;99529.44;;;-4.62;75.90
45369;BME280;51342;55.250;37.668;2022-12-18T11:41:37;99538.09;;;-4.60;75.94
45369;BME280;51342;55.250;37.668;2022-12-18T11:44:52;99542.13;;;-4.69;76.04
45369;BME280;51342;55.250;37.668;2022-12-18T11:53:03;99556.53;;;-4.68;76.38
45369;BME280;51342;55.250;37.668;2022-12-18T11:58:50;99575.13;;;-4.74;76.44
45369;BME280;51342;55.250;37.668;2022-12-18T12:04:46;99570.13;;;-4.82;76.36
45369;BME280;51342;55.250;37.668;2022-12-18T12:14:00;99593.16;;;-4.78;76.57
45369;BME280;51342;55.250;37.668;2022-12-18T12:19:06;99605.25;;;-4.76;76.87
45369;BME280;51342;55.250;37.668;2022-12-18T12:34:15;99624.94;;;-4.88;76.92
45369;BME280;51342;55.250;37.668;2022-12-18T12:39:41;99639.88;;;-4.82;77.00
45369;BME280;51342;55.250;37.668;2022-12-18T12:43:01;99645.81;;;-4.82;76.97
45369;BME280;51342;55.250;37.668;2022-12-18T12:46:11;99644.00;;;-4.83;76.96
45369;BME280;51342;55.250;37.668;2022-12-18T12:48:55;99659.16;;;-4.90;77.02
45369;BME280;51342;55.250;37.668;2022-12-18T12:51:32;99668.88;;;-4.86;77.05
45369;BME280;51342;55.250;37.668;2022-12-18T12:54:21;99672.66;;;-4.89;77.15
45369;BME280;51342;55.250;37.668;2022-12-18T12:59:45;99678.66;;;-5.03;77.47
45369;BME280;51342;55.250;37.668;2022-12-18T13:07:59;99689.44;;;-5.11;77.44
45369;BME280;51342;55.250;37.668;2022-12-18T13:10:40;99693.06;;;-5.09;77.33
45369;BME280;51342;55.250;37.668;2022-12-18T13:13:15;99693.97;;;-5.09;77.43
45369;BME280;51342;55.250;37.668;2022-12-18T13:16:04;99701.69;;;-5.07;77.36
45369;BME280;51342;55.250;37.668;2022-12-18T13:18:37;99704.94;;;-5.22;77.52
45369;BME280;51342;55.250;37.668;2022-12-18T13:23:56;99712.69;;;-5.14;77.49
45369;BME280;51342;55.250;37.668;2022-12-18T13:26:32;99731.06;;;-5.08;77.54
45369;BME280;51342;55.250;37.668;2022-12-18T13:29:04;99728.00;;;-5.05;77.53
45369;BME280;51342;55.250;37.668;2022-12-18T13:34:26;99746.19;;;-5.00;77.57
45369;BME280;51342;55.250;37.668;2022-12-18T13:46:24;99774.84;;;-5.00;77.61
45369;BME280;51342;55.250;37.668;2022-12-18T13:49:23;99777.94;;;-5.02;77.64
45369;BME280;51342;55.250;37.668;2022-12-18T13:51:57;99782.63;;;-4.98;77.87
45369;BME280;51342;55.250;37.668;2022-12-18T13:54:37;99784.59;;;-4.96;77.85
45369;BME280;51342;55.250;37.668;2022-12-18T13:57:34;99793.63;;;-4.98;77.73
45369;BME280;51342;55.250;37.668;2022-12-18T14:02:53;99794.69;;;-4.96;77.95
45369;BME280;51342;55.250;37.668;2022-12-18T14:05:31;99807.69;;;-4.93;77.96
45369;BME280;51342;55.250;37.668;2022-12-18T14:08:14;99814.69;;;-4.90;77.99
45369;BME280;51342;55.250;37.668;2022-12-18T14:10:51;99814.88;;;-4.89;78.02
45369;BME280;51342;55.250;37.668;2022-12-18T14:13:31;99817.75;;;-4.86;78.01
45369;BME280;51342;55.250;37.668;2022-12-18T14:16:06;99817.03;;;-4.85;78.11
45369;BME280;51342;55.250;37.668;2022-12-18T14:18:56;99811.66;;;-4.88;77.87
45369;BME280;51342;55.250;37.668;2022-12-18T14:21:34;99821.19;;;-4.85;78.44
45369;BME280;51342;55.250;37.668;2022-12-18T14:24:21;99834.69;;;-4.85;77.93
45369;BME280;51342;55.250;37.668;2022-12-18T14:27:12;99841.94;;;-4.88;77.98
45369;BME280;51342;55.250;37.668;2022-12-18T14:29:55;99843.00;;;-4.86;78.02
45369;BME280;51342;55.250;37.668;2022-12-18T14:32:27;99838.69;;;-4.87;78.16
45369;BME280;51342;55.250;37.668;2022-12-18T14:35:13;99851.63;;;-4.91;78.03
45369;BME280;51342;55.250;37.668;2022-12-18T14:37:47;99855.06;;;-4.90;78.12
45369;BME280;51342;55.250;37.668;2022-12-18T14:40:24;99865.31;;;-4.89;78.17
45369;BME280;51342;55.250;37.668;2022-12-18T14:43:00;99869.47;;;-4.89;78.23
45369;BME280;51342;55.250;37.668;2022-12-18T14:45:38;99864.63;;;-4.88;78.29
45369;BME280;51342;55.250;37.668;2022-12-18T14:53:32;99874.28;;;-5.12;77.72
45369;BME280;51342;55.250;37.668;2022-12-18T14:56:26;99886.56;;;-5.15;77.79
45369;BME280;51342;55.250;37.668;2022-12-18T14:59:00;99888.38;;;-5.07;78.31
45369;BME280;51342;55.250;37.668;2022-12-18T15:01:38;99896.31;;;-5.04;78.12
45369;BME280;51342;55.250;37.668;2022-12-18T15:04:36;99897.00;;;-5.05;78.19
45369;BME280;51342;55.250;37.668;2022-12-18T15:07:22;99900.09;;;-5.00;78.30
45369;BME280;51342;55.250;37.668;2022-12-18T15:18:18;99920.50;;;-4.92;78.62
45369;BME280;51342;55.250;37.668;2022-12-18T15:20:57;99923.38;;;-4.89;78.60
45369;BME280;51342;55.250;37.668;2022-12-18T15:26:09;99936.19;;;-4.87;78.51
45369;BME280;51342;55.250;37.668;2022-12-18T15:28:49;99930.03;;;-4.89;78.60
45369;BME280;51342;55.250;37.668;2022-12-18T15:31:23;99936.88;;;-4.88;78.60
45369;BME280;51342;55.250;37.668;2022-12-18T15:34:08;99950.94;;;-4.90;78.68
45369;BME280;51342;55.250;37.668;2022-12-18T15:36:46;99956.00;;;-4.90;78.69
45369;BME280;51342;55.250;37.668;2022-12-18T15:39:23;99951.84;;;-4.90;78.69
45369;BME280;51342;55.250;37.668;2022-12-18T15:41:58;99954.38;;;-4.90;78.58
45369;BME280;51342;55.250;37.668;2022-12-18T15:44:58;99957.22;;;-4.94;78.60
45369;BME280;51342;55.250;37.668;2022-12-18T15:47:33;99965.91;;;-4.92;78.56
45369;BME280;51342;55.250;37.668;2022-12-18T15:50:09;99967.72;;;-4.91;78.44
45369;BME280;51342;55.250;37.668;2022-12-18T15:52:47;99970.06;;;-4.92;78.36
45369;BME280;51342;55.250;37.668;2022-12-18T15:55:24;99977.81;;;-4.91;78.24
45369;BME280;51342;55.250;37.668;2022-12-18T15:58:13;99977.78;;;-4.98;78.40
45369;BME280;51342;55.250;37.668;2022-12-18T16:00:49;99979.41;;;-4.98;78.13
45369;BME280;51342;55.250;37.668;2022-12-18T16:03:22;99990.00;;;-5.01;78.32
45369;BME280;51342;55.250;37.668;2022-12-18T16:05:56;99996.50;;;-5.03;77.86
45369;BME280;51342;55.250;37.668;2022-12-18T16:08:32;99999.53;;;-5.06;78.00
45369;BME280;51342;55.250;37.668;2022-12-18T16:11:08;100008.56;;;-5.08;77.84
45369;BME280;51342;55.250;37.668;2022-12-18T16:13:49;100010.91;;;-5.09;77.92
45369;BME280;51342;55.250;37.668;2022-12-18T16:16:25;100024.22;;;-5.10;77.68
45369;BME280;51342;55.250;37.668;2022-12-18T16:18:59;100024.00;;;-5.12;77.75
45369;BME280;51342;55.250;37.668;2022-12-18T16:21:33;100021.31;;;-5.13;77.68
45369;BME280;51342;55.250;37.668;2022-12-18T16:24:17;100032.63;;;-5.17;77.48
45369;BME280;51342;55.250;37.668;2022-12-18T16:26:52;100035.88;;;-5.18;77.60
45369;BME280;51342;55.250;37.668;2022-12-18T16:29:27;100053.53;;;-5.18;77.61
45369;BME280;51342;55.250;37.668;2022-12-18T16:32:04;100050.44;;;-5.22;77.41
45369;BME280;51342;55.250;37.668;2022-12-18T16:34:38;100060.88;;;-5.26;77.31
45369;BME280;51342;55.250;37.668;2022-12-18T16:37:14;100059.09;;;-5.27;77.38
45369;BME280;51342;55.250;37.668;2022-12-18T16:39:49;100074.72;;;-5.30;77.30
45369;BME280;51342;55.250;37.668;2022-12-18T16:42:24;100066.41;;;-5.36;77.14
45369;BME280;51342;55.250;37.668;2022-12-18T16:44:59;100088.69;;;-5.39;77.21
45369;BME280;51342;55.250;37.668;2022-12-18T16:47:33;100085.63;;;-5.44;76.89
45369;BME280;51342;55.250;37.668;2022-12-18T16:50:10;100091.72;;;-5.49;76.90
45369;BME280;51342;55.250;37.668;2022-12-18T16:52:42;100097.47;;;-5.50;76.97
45369;BME280;51342;55.250;37.668;2022-12-18T16:55:19;100090.94;;;-5.55;77.02
45369;BME280;51342;55.250;37.668;2022-12-18T16:57:53;100094.16;;;-5.56;77.04
45369;BME280;51342;55.250;37.668;2022-12-18T17:00:27;100102.97;;;-5.60;77.00
45369;BME280;51342;55.250;37.668;2022-12-18T17:03:03;100109.63;;;-5.60;76.94
45369;BME280;51342;55.250;37.668;2022-12-18T17:05:37;100111.94;;;-5.62;76.84
45369;BME280;51342;55.250;37.668;2022-12-18T17:08:10;100108.31;;;-5.64;76.87
45369;BME280;51342;55.250;37.668;2022-12-18T17:10:44;100116.19;;;-5.68;76.70
45369;BME280;51342;55.250;37.668;2022-12-18T17:13:25;100122.81;;;-5.75;76.81
45369;BME280;51342;55.250;37.668;2022-12-18T17:16:07;100127.25;;;-5.80;76.71
45369;BME280;51342;55.250;37.668;2022-12-18T17:18:42;100128.69;;;-5.82;76.78
45369;BME280;51342;55.250;37.668;2022-12-18T17:21:16;100131.50;;;-5.86;76.82
45369;BME280;51342;55.250;37.668;2022-12-18T17:23:49;100135.97;;;-5.91;76.58
45369;BME280;51342;55.250;37.668;2022-12-18T17:26:26;100141.38;;;-5.95;76.58
45369;BME280;51342;55.250;37.668;2022-12-18T17:29:03;100139.16;;;-5.99;76.56
45369;BME280;51342;55.250;37.668;2022-12-18T17:31:37;100145.41;;;-6.02;76.36
45369;BME280;51342;55.250;37.668;2022-12-18T17:34:12;100143.91;;;-6.07;76.35
45369;BME280;51342;55.250;37.668;2022-12-18T17:36:49;100159.56;;;-6.10;76.21
45369;BME280;51342;55.250;37.668;2022-12-18T17:39:25;100166.94;;;-6.11;76.42
45369;BME280;51342;55.250;37.668;2022-12-18T17:42:01;100161.47;;;-6.15;76.28
45369;BME280;51342;55.250;37.668;2022-12-18T17:44:37;100180.72;;;-6.15;76.37
45369;BME280;51342;55.250;37.668;2022-12-18T17:47:11;100190.41;;;-6.18;76.15
45369;BME280;51342;55.250;37.668;2022-12-18T17:49:47;100193.25;;;-6.22;76.28
45369;BME280;51342;55.250;37.668;2022-12-18T17:52:22;100202.59;;;-6.21;76.36
45369;BME280;51342;55.250;37.668;2022-12-18T17:54:55;100215.38;;;-6.20;76.21
45369;BME280;51342;55.250;37.668;2022-12-18T17:57:28;100222.03;;;-6.20;76.29
45369;BME280;51342;55.250;37.668;2022-12-18T18:00:04;100224.16;;;-6.23;76.03
45369;BME280;51342;55.250;37.668;2022-12-18T18:02:42;100225.88;;;-6.29;76.10
45369;BME280;51342;55.250;37.668;2022-12-18T18:05:22;100222.06;;;-6.33;76.04
45369;BME280;51342;55.250;37.668;2022-12-18T18:08:00;100229.19;;;-6.36;76.03
45369;BME280;51342;55.250;37.668;2022-12-18T18:10:35;100237.78;;;-6.67;76.46
45369;BME280;51342;55.250;37.668;2022-12-18T18:13:22;100231.53;;;-6.63;76.21
45369;BME280;51342;55.250;37.668;2022-12-18T18:16:13;100243.91;;;-6.64;76.18
45369;BME280;51342;55.250;37.668;2022-12-18T18:18:47;100251.06;;;-6.68;76.11
45369;BME280;51342;55.250;37.668;2022-12-18T18:21:23;100252.78;;;-6.74;76.10
45369;BME280;51342;55.250;37.668;2022-12-18T18:24:02;100257.66;;;-6.81;75.97
45369;BME280;51342;55.250;37.668;2022-12-18T18:26:37;100260.28;;;-6.86;75.95
45369;BME280;51342;55.250;37.668;2022-12-18T18:29:15;100254.25;;;-6.94;75.69
45369;BME280;51342;55.250;37.668;2022-12-18T18:31:49;100271.94;;;-7.00;75.98
45369;BME280;51342;55.250;37.668;2022-12-18T18:34:25;100277.94;;;-7.05;75.78
45369;BME280;51342;55.250;37.668;2022-12-18T18:37:02;100284.88;;;-7.09;75.82
45369;BME280;51342;55.250;37.668;2022-12-18T18:39:35;100290.41;;;-7.12;75.78
45369;BME280;51342;55.250;37.668;2022-12-18T18:42:09;100295.44;;;-7.12;75.79
45369;BME280;51342;55.250;37.668;2022-12-18T18:44:42;100307.91;;;-7.19;75.62
45369;BME280;51342;55.250;37.668;2022-12-18T18:47:18;100301.13;;;-7.26;75.64